Uledi, Pennsylvania
Current Conditions -  °F | °C
As of 1:53 PM on Thursday 23 Oct 2014 (Local Time) from KMGW Reporting Station
Overcast Overcast  
Wind Chill: 58°   Ceiling: 3400
Heat Index: 58°   Visibility: 10mi
Dew Point: 42°   Wind: 6mph
Humidity: 56%   Direction: 330°NNW
Pressure: 30.1"   Gusts: NA
Location:  39.9°N, 79.79°W
Report Text: KMGW 231753Z 33005KT 10SM OVC034 14/06 A3010 RMK AO2 SLP193 T01440056 10150 20089 58019
Loading
Personal Weather Stations






























Interactive Weather Map
Tropical Storm Tracking
New forecast layout! Learn more

10-Day Weather Forecast

Advertisements
Track Severe Weather on mobile